Terminal Aerodrome Forecast
Issued by NWS

Home | Current Version | Previous Version | Text Only | Print | Product List | Glossary On
Versions: 1 2 3 4 5 6 7 8 9 10 11 12 13 14 15 16 17 18 19 20 21
000
FTUS41 KBTV 251135
TAFPBG
TAF
KPBG 251135Z 2512/2612 VRB03KT P6SM SCT250
     FM251400 21007KT P6SM FEW050 FEW250
     FM251700 19007KT P6SM BKN050
     FM252100 19008KT P6SM -SHRA OVC030
     FM260000 21009KT P6SM OVC025
     FM260900 27008KT P6SM OVC030=

USA.gov is the U.S. government's official web portal to all federal, state and local government web resources and services.